sensor_id;sensor_type;location;lat;lon;timestamp;P1;durP1;ratioP1;P2;durP2;ratioP2
76900;SDS011;65859;43.020;25.096;2024-01-30T00:02:09;15.23;;;9.07;;
76900;SDS011;65859;43.020;25.096;2024-01-30T00:04:53;14.55;;;8.65;;
76900;SDS011;65859;43.020;25.096;2024-01-30T00:07:38;14.70;;;7.65;;
76900;SDS011;65859;43.020;25.096;2024-01-30T00:10:23;16.90;;;9.60;;
76900;SDS011;65859;43.020;25.096;2024-01-30T00:13:07;15.45;;;9.38;;
76900;SDS011;65859;43.020;25.096;2024-01-30T00:15:52;13.63;;;8.55;;
76900;SDS011;65859;43.020;25.096;2024-01-30T00:18:37;15.52;;;9.55;;
76900;SDS011;65859;43.020;25.096;2024-01-30T00:21:23;17.10;;;9.70;;
76900;SDS011;65859;43.020;25.096;2024-01-30T00:24:08;17.25;;;9.30;;
76900;SDS011;65859;43.020;25.096;2024-01-30T00:26:55;16.77;;;9.23;;
76900;SDS011;65859;43.020;25.096;2024-01-30T00:29:39;17.35;;;9.93;;
76900;SDS011;65859;43.020;25.096;2024-01-30T00:32:24;18.73;;;9.75;;
76900;SDS011;65859;43.020;25.096;2024-01-30T00:35:09;17.30;;;9.73;;
76900;SDS011;65859;43.020;25.096;2024-01-30T00:37:54;18.95;;;10.10;;
76900;SDS011;65859;43.020;25.096;2024-01-30T00:40:39;16.90;;;9.85;;
76900;SDS011;65859;43.020;25.096;2024-01-30T00:43:24;16.02;;;9.20;;
76900;SDS011;65859;43.020;25.096;2024-01-30T00:46:09;20.90;;;10.52;;
76900;SDS011;65859;43.020;25.096;2024-01-30T00:48:54;20.58;;;10.07;;
76900;SDS011;65859;43.020;25.096;2024-01-30T00:51:39;19.23;;;10.52;;
76900;SDS011;65859;43.020;25.096;2024-01-30T00:54:23;20.30;;;10.93;;
76900;SDS011;65859;43.020;25.096;2024-01-30T00:57:09;21.38;;;11.57;;
76900;SDS011;65859;43.020;25.096;2024-01-30T00:59:56;21.98;;;11.55;;
76900;SDS011;65859;43.020;25.096;2024-01-30T01:02:41;26.77;;;12.77;;
76900;SDS011;65859;43.020;25.096;2024-01-30T01:05:26;22.67;;;11.52;;
76900;SDS011;65859;43.020;25.096;2024-01-30T01:08:11;21.10;;;12.18;;
76900;SDS011;65859;43.020;25.096;2024-01-30T01:10:58;24.60;;;12.88;;
76900;SDS011;65859;43.020;25.096;2024-01-30T01:13:43;25.00;;;12.40;;
76900;SDS011;65859;43.020;25.096;2024-01-30T01:16:27;29.38;;;15.20;;
76900;SDS011;65859;43.020;25.096;2024-01-30T01:19:15;27.92;;;14.48;;
76900;SDS011;65859;43.020;25.096;2024-01-30T01:21:59;31.27;;;15.18;;
76900;SDS011;65859;43.020;25.096;2024-01-30T01:24:44;23.25;;;11.98;;
76900;SDS011;65859;43.020;25.096;2024-01-30T01:27:30;28.10;;;13.27;;
76900;SDS011;65859;43.020;25.096;2024-01-30T01:30:17;29.52;;;13.77;;
76900;SDS011;65859;43.020;25.096;2024-01-30T01:33:05;28.52;;;14.23;;
76900;SDS011;65859;43.020;25.096;2024-01-30T01:35:50;24.70;;;13.20;;
76900;SDS011;65859;43.020;25.096;2024-01-30T01:38:35;27.65;;;13.38;;
76900;SDS011;65859;43.020;25.096;2024-01-30T01:41:20;24.98;;;12.02;;
76900;SDS011;65859;43.020;25.096;2024-01-30T01:44:04;23.15;;;12.38;;
76900;SDS011;65859;43.020;25.096;2024-01-30T01:46:49;23.00;;;12.07;;
76900;SDS011;65859;43.020;25.096;2024-01-30T01:49:36;26.90;;;13.02;;
76900;SDS011;65859;43.020;25.096;2024-01-30T01:52:21;24.42;;;12.35;;
76900;SDS011;65859;43.020;25.096;2024-01-30T01:55:06;26.98;;;12.77;;
76900;SDS011;65859;43.020;25.096;2024-01-30T01:57:53;25.10;;;12.02;;
76900;SDS011;65859;43.020;25.096;2024-01-30T02:00:37;22.40;;;12.63;;
76900;SDS011;65859;43.020;25.096;2024-01-30T02:03:25;26.90;;;13.57;;
76900;SDS011;65859;43.020;25.096;2024-01-30T02:06:10;23.30;;;12.20;;
76900;SDS011;65859;43.020;25.096;2024-01-30T02:08:55;22.83;;;11.85;;
76900;SDS011;65859;43.020;25.096;2024-01-30T02:11:40;26.40;;;12.63;;
76900;SDS011;65859;43.020;25.096;2024-01-30T02:14:25;26.60;;;12.38;;
76900;SDS011;65859;43.020;25.096;2024-01-30T02:17:10;24.20;;;11.95;;
76900;SDS011;65859;43.020;25.096;2024-01-30T02:19:55;26.52;;;13.70;;
76900;SDS011;65859;43.020;25.096;2024-01-30T02:22:41;25.73;;;12.55;;
76900;SDS011;65859;43.020;25.096;2024-01-30T02:25:33;28.73;;;14.23;;
76900;SDS011;65859;43.020;25.096;2024-01-30T02:28:22;25.48;;;13.35;;
76900;SDS011;65859;43.020;25.096;2024-01-30T02:31:07;27.70;;;12.13;;
76900;SDS011;65859;43.020;25.096;2024-01-30T02:33:51;33.60;;;16.38;;
76900;SDS011;65859;43.020;25.096;2024-01-30T02:36:36;24.58;;;13.13;;
76900;SDS011;65859;43.020;25.096;2024-01-30T02:39:21;26.48;;;13.13;;
76900;SDS011;65859;43.020;25.096;2024-01-30T02:42:06;23.77;;;13.50;;
76900;SDS011;65859;43.020;25.096;2024-01-30T02:44:51;24.55;;;12.88;;
76900;SDS011;65859;43.020;25.096;2024-01-30T02:47:36;22.95;;;12.43;;
76900;SDS011;65859;43.020;25.096;2024-01-30T02:50:21;23.45;;;11.82;;
76900;SDS011;65859;43.020;25.096;2024-01-30T02:53:06;23.45;;;11.98;;
76900;SDS011;65859;43.020;25.096;2024-01-30T02:55:51;25.10;;;12.93;;
76900;SDS011;65859;43.020;25.096;2024-01-30T02:58:37;23.48;;;12.65;;
76900;SDS011;65859;43.020;25.096;2024-01-30T03:01:22;25.58;;;12.88;;
76900;SDS011;65859;43.020;25.096;2024-01-30T03:04:08;21.23;;;11.40;;
76900;SDS011;65859;43.020;25.096;2024-01-30T03:06:52;25.10;;;13.50;;
76900;SDS011;65859;43.020;25.096;2024-01-30T03:09:37;26.63;;;13.48;;
76900;SDS011;65859;43.020;25.096;2024-01-30T03:12:22;27.02;;;13.90;;
76900;SDS011;65859;43.020;25.096;2024-01-30T03:15:07;24.60;;;12.82;;
76900;SDS011;65859;43.020;25.096;2024-01-30T03:17:53;24.95;;;13.15;;
76900;SDS011;65859;43.020;25.096;2024-01-30T03:20:38;26.27;;;13.30;;
76900;SDS011;65859;43.020;25.096;2024-01-30T03:23:22;24.15;;;12.77;;
76900;SDS011;65859;43.020;25.096;2024-01-30T03:26:08;24.30;;;12.85;;
76900;SDS011;65859;43.020;25.096;2024-01-30T03:28:54;26.85;;;13.38;;
76900;SDS011;65859;43.020;25.096;2024-01-30T03:31:39;23.17;;;12.27;;
76900;SDS011;65859;43.020;25.096;2024-01-30T03:34:24;22.80;;;13.13;;
76900;SDS011;65859;43.020;25.096;2024-01-30T03:37:09;24.42;;;12.82;;
76900;SDS011;65859;43.020;25.096;2024-01-30T03:39:53;21.77;;;11.90;;
76900;SDS011;65859;43.020;25.096;2024-01-30T03:42:38;22.85;;;12.20;;
76900;SDS011;65859;43.020;25.096;2024-01-30T03:45:22;26.30;;;12.35;;
76900;SDS011;65859;43.020;25.096;2024-01-30T03:48:07;23.90;;;11.95;;
76900;SDS011;65859;43.020;25.096;2024-01-30T03:50:52;22.38;;;11.40;;
76900;SDS011;65859;43.020;25.096;2024-01-30T03:53:36;22.70;;;12.10;;
76900;SDS011;65859;43.020;25.096;2024-01-30T03:56:21;24.02;;;12.68;;
76900;SDS011;65859;43.020;25.096;2024-01-30T03:59:07;23.98;;;13.90;;
76900;SDS011;65859;43.020;25.096;2024-01-30T04:01:52;21.20;;;11.93;;
76900;SDS011;65859;43.020;25.096;2024-01-30T04:04:38;22.38;;;12.25;;
76900;SDS011;65859;43.020;25.096;2024-01-30T04:07:23;22.52;;;11.18;;
76900;SDS011;65859;43.020;25.096;2024-01-30T04:10:09;20.13;;;10.95;;
76900;SDS011;65859;43.020;25.096;2024-01-30T04:12:53;21.08;;;11.23;;
76900;SDS011;65859;43.020;25.096;2024-01-30T04:15:39;23.08;;;12.05;;
76900;SDS011;65859;43.020;25.096;2024-01-30T04:18:24;23.02;;;11.57;;
76900;SDS011;65859;43.020;25.096;2024-01-30T04:21:09;22.40;;;12.35;;
76900;SDS011;65859;43.020;25.096;2024-01-30T04:23:53;20.10;;;11.20;;
76900;SDS011;65859;43.020;25.096;2024-01-30T04:26:38;20.75;;;11.40;;
76900;SDS011;65859;43.020;25.096;2024-01-30T04:29:24;21.92;;;11.20;;
76900;SDS011;65859;43.020;25.096;2024-01-30T04:32:09;22.35;;;11.85;;
76900;SDS011;65859;43.020;25.096;2024-01-30T04:34:54;21.00;;;11.80;;
76900;SDS011;65859;43.020;25.096;2024-01-30T04:37:39;20.00;;;11.65;;
76900;SDS011;65859;43.020;25.096;2024-01-30T04:40:23;23.15;;;12.20;;
76900;SDS011;65859;43.020;25.096;2024-01-30T04:43:08;21.48;;;11.35;;
76900;SDS011;65859;43.020;25.096;2024-01-30T04:45:53;23.77;;;12.07;;
76900;SDS011;65859;43.020;25.096;2024-01-30T04:48:37;21.13;;;11.88;;
76900;SDS011;65859;43.020;25.096;2024-01-30T04:51:22;22.75;;;11.93;;
76900;SDS011;65859;43.020;25.096;2024-01-30T04:54:06;26.67;;;12.27;;
76900;SDS011;65859;43.020;25.096;2024-01-30T04:56:51;22.38;;;12.63;;
76900;SDS011;65859;43.020;25.096;2024-01-30T04:59:38;23.52;;;12.35;;
76900;SDS011;65859;43.020;25.096;2024-01-30T05:02:23;30.73;;;15.40;;
76900;SDS011;65859;43.020;25.096;2024-01-30T05:05:08;22.20;;;11.85;;
76900;SDS011;65859;43.020;25.096;2024-01-30T05:07:53;23.23;;;11.13;;
76900;SDS011;65859;43.020;25.096;2024-01-30T05:10:38;24.52;;;11.80;;
76900;SDS011;65859;43.020;25.096;2024-01-30T05:13:22;36.30;;;17.83;;
76900;SDS011;65859;43.020;25.096;2024-01-30T05:16:08;28.63;;;14.63;;
76900;SDS011;65859;43.020;25.096;2024-01-30T05:18:53;34.13;;;18.27;;
76900;SDS011;65859;43.020;25.096;2024-01-30T05:21:37;25.42;;;13.23;;
76900;SDS011;65859;43.020;25.096;2024-01-30T05:24:22;30.55;;;15.25;;
76900;SDS011;65859;43.020;25.096;2024-01-30T05:27:07;30.35;;;15.30;;
76900;SDS011;65859;43.020;25.096;2024-01-30T05:29:56;33.08;;;17.20;;
76900;SDS011;65859;43.020;25.096;2024-01-30T05:32:40;25.85;;;14.63;;
76900;SDS011;65859;43.020;25.096;2024-01-30T05:35:25;36.35;;;18.70;;
76900;SDS011;65859;43.020;25.096;2024-01-30T05:38:11;32.53;;;16.98;;
76900;SDS011;65859;43.020;25.096;2024-01-30T05:40:56;27.23;;;14.68;;
76900;SDS011;65859;43.020;25.096;2024-01-30T05:43:44;31.48;;;14.05;;
76900;SDS011;65859;43.020;25.096;2024-01-30T05:46:29;29.08;;;15.63;;
76900;SDS011;65859;43.020;25.096;2024-01-30T05:49:14;24.63;;;13.05;;
76900;SDS011;65859;43.020;25.096;2024-01-30T05:51:58;25.50;;;14.18;;
76900;SDS011;65859;43.020;25.096;2024-01-30T05:54:43;21.10;;;11.80;;
76900;SDS011;65859;43.020;25.096;2024-01-30T05:57:28;23.90;;;12.23;;
76900;SDS011;65859;43.020;25.096;2024-01-30T06:00:14;22.17;;;12.50;;
76900;SDS011;65859;43.020;25.096;2024-01-30T06:03:00;22.98;;;12.65;;
76900;SDS011;65859;43.020;25.096;2024-01-30T06:05:45;23.25;;;12.70;;
76900;SDS011;65859;43.020;25.096;2024-01-30T06:08:30;23.27;;;12.73;;
76900;SDS011;65859;43.020;25.096;2024-01-30T06:11:15;20.63;;;11.75;;
76900;SDS011;65859;43.020;25.096;2024-01-30T06:14:00;23.25;;;13.07;;
76900;SDS011;65859;43.020;25.096;2024-01-30T06:16:44;22.38;;;12.10;;
76900;SDS011;65859;43.020;25.096;2024-01-30T06:19:29;20.48;;;11.70;;
76900;SDS011;65859;43.020;25.096;2024-01-30T06:22:14;26.02;;;14.27;;
76900;SDS011;65859;43.020;25.096;2024-01-30T06:24:59;54.75;;;24.10;;
76900;SDS011;65859;43.020;25.096;2024-01-30T06:27:44;41.72;;;20.55;;
76900;SDS011;65859;43.020;25.096;2024-01-30T06:30:30;29.20;;;15.27;;
76900;SDS011;65859;43.020;25.096;2024-01-30T06:33:15;28.67;;;14.70;;
76900;SDS011;65859;43.020;25.096;2024-01-30T06:35:59;22.73;;;12.20;;
76900;SDS011;65859;43.020;25.096;2024-01-30T06:38:44;24.20;;;12.30;;
76900;SDS011;65859;43.020;25.096;2024-01-30T06:41:29;21.88;;;11.70;;
76900;SDS011;65859;43.020;25.096;2024-01-30T06:44:14;25.98;;;12.10;;
76900;SDS011;65859;43.020;25.096;2024-01-30T06:46:58;23.52;;;12.63;;
76900;SDS011;65859;43.020;25.096;2024-01-30T06:49:43;23.23;;;12.45;;
76900;SDS011;65859;43.020;25.096;2024-01-30T06:52:28;24.02;;;13.43;;
76900;SDS011;65859;43.020;25.096;2024-01-30T06:55:13;22.27;;;12.77;;
76900;SDS011;65859;43.020;25.096;2024-01-30T06:57:58;26.17;;;13.32;;
76900;SDS011;65859;43.020;25.096;2024-01-30T07:00:44;24.85;;;12.18;;
76900;SDS011;65859;43.020;25.096;2024-01-30T07:03:29;24.30;;;11.70;;
76900;SDS011;65859;43.020;25.096;2024-01-30T07:06:13;22.70;;;12.35;;
76900;SDS011;65859;43.020;25.096;2024-01-30T07:08:58;20.88;;;11.68;;
76900;SDS011;65859;43.020;25.096;2024-01-30T07:11:42;25.17;;;12.02;;
76900;SDS011;65859;43.020;25.096;2024-01-30T07:14:28;25.25;;;13.32;;
76900;SDS011;65859;43.020;25.096;2024-01-30T07:17:15;25.27;;;13.00;;
76900;SDS011;65859;43.020;25.096;2024-01-30T07:20:01;24.13;;;12.27;;
76900;SDS011;65859;43.020;25.096;2024-01-30T07:22:49;26.88;;;14.45;;
76900;SDS011;65859;43.020;25.096;2024-01-30T07:25:34;27.70;;;14.23;;
76900;SDS011;65859;43.020;25.096;2024-01-30T07:28:20;28.23;;;14.20;;
76900;SDS011;65859;43.020;25.096;2024-01-30T07:31:06;24.50;;;13.05;;
76900;SDS011;65859;43.020;25.096;2024-01-30T07:33:51;23.90;;;12.77;;
76900;SDS011;65859;43.020;25.096;2024-01-30T07:36:36;21.33;;;12.23;;
76900;SDS011;65859;43.020;25.096;2024-01-30T07:39:20;24.27;;;13.07;;
76900;SDS011;65859;43.020;25.096;2024-01-30T07:42:05;25.27;;;13.50;;
76900;SDS011;65859;43.020;25.096;2024-01-30T07:44:49;23.65;;;12.93;;
76900;SDS011;65859;43.020;25.096;2024-01-30T07:47:34;24.80;;;13.73;;
76900;SDS011;65859;43.020;25.096;2024-01-30T07:50:19;26.48;;;13.00;;
76900;SDS011;65859;43.020;25.096;2024-01-30T07:53:04;24.92;;;14.55;;
76900;SDS011;65859;43.020;25.096;2024-01-30T07:55:49;28.73;;;14.85;;
76900;SDS011;65859;43.020;25.096;2024-01-30T07:58:34;31.20;;;15.75;;
76900;SDS011;65859;43.020;25.096;2024-01-30T08:01:20;27.88;;;15.27;;
76900;SDS011;65859;43.020;25.096;2024-01-30T08:04:06;27.50;;;15.65;;
76900;SDS011;65859;43.020;25.096;2024-01-30T08:06:51;27.13;;;14.60;;
76900;SDS011;65859;43.020;25.096;2024-01-30T08:09:35;25.45;;;13.40;;
76900;SDS011;65859;43.020;25.096;2024-01-30T08:12:20;23.55;;;12.38;;
76900;SDS011;65859;43.020;25.096;2024-01-30T08:15:05;27.77;;;13.50;;
76900;SDS011;65859;43.020;25.096;2024-01-30T08:17:50;22.77;;;12.13;;
76900;SDS011;65859;43.020;25.096;2024-01-30T08:20:39;25.58;;;11.80;;
76900;SDS011;65859;43.020;25.096;2024-01-30T08:23:24;27.17;;;12.05;;
76900;SDS011;65859;43.020;25.096;2024-01-30T08:26:08;22.00;;;10.88;;
76900;SDS011;65859;43.020;25.096;2024-01-30T08:28:53;29.55;;;12.30;;
76900;SDS011;65859;43.020;25.096;2024-01-30T08:31:39;22.45;;;11.73;;
76900;SDS011;65859;43.020;25.096;2024-01-30T08:34:24;22.17;;;12.27;;
76900;SDS011;65859;43.020;25.096;2024-01-30T08:37:09;39.70;;;16.23;;
76900;SDS011;65859;43.020;25.096;2024-01-30T08:39:53;32.10;;;14.57;;
76900;SDS011;65859;43.020;25.096;2024-01-30T08:42:38;34.72;;;16.10;;
76900;SDS011;65859;43.020;25.096;2024-01-30T08:45:23;30.52;;;16.00;;
76900;SDS011;65859;43.020;25.096;2024-01-30T08:48:09;25.80;;;13.88;;
76900;SDS011;65859;43.020;25.096;2024-01-30T08:50:54;29.38;;;14.32;;
76900;SDS011;65859;43.020;25.096;2024-01-30T08:53:39;23.92;;;12.20;;
76900;SDS011;65859;43.020;25.096;2024-01-30T08:56:24;22.30;;;11.40;;
76900;SDS011;65859;43.020;25.096;2024-01-30T08:59:08;19.48;;;10.65;;
76900;SDS011;65859;43.020;25.096;2024-01-30T09:01:54;19.23;;;10.52;;
76900;SDS011;65859;43.020;25.096;2024-01-30T09:04:41;19.67;;;11.27;;
76900;SDS011;65859;43.020;25.096;2024-01-30T09:07:26;20.75;;;10.75;;
76900;SDS011;65859;43.020;25.096;2024-01-30T09:10:11;26.50;;;11.20;;
76900;SDS011;65859;43.020;25.096;2024-01-30T09:12:55;20.58;;;10.55;;
76900;SDS011;65859;43.020;25.096;2024-01-30T09:15:40;18.40;;;9.75;;
76900;SDS011;65859;43.020;25.096;2024-01-30T09:18:25;18.10;;;10.27;;
76900;SDS011;65859;43.020;25.096;2024-01-30T09:21:10;18.35;;;10.70;;
76900;SDS011;65859;43.020;25.096;2024-01-30T09:23:54;19.83;;;10.98;;
76900;SDS011;65859;43.020;25.096;2024-01-30T09:26:45;28.23;;;11.75;;
76900;SDS011;65859;43.020;25.096;2024-01-30T09:29:29;21.30;;;11.00;;
76900;SDS011;65859;43.020;25.096;2024-01-30T09:32:16;21.65;;;11.82;;
76900;SDS011;65859;43.020;25.096;2024-01-30T09:35:01;21.67;;;9.88;;
76900;SDS011;65859;43.020;25.096;2024-01-30T09:37:46;18.58;;;10.48;;
76900;SDS011;65859;43.020;25.096;2024-01-30T09:40:31;23.42;;;11.45;;
76900;SDS011;65859;43.020;25.096;2024-01-30T09:43:16;21.35;;;12.07;;
76900;SDS011;65859;43.020;25.096;2024-01-30T09:46:06;21.00;;;10.40;;
76900;SDS011;65859;43.020;25.096;2024-01-30T09:48:56;19.25;;;9.57;;
76900;SDS011;65859;43.020;25.096;2024-01-30T09:51:42;29.58;;;10.63;;
76900;SDS011;65859;43.020;25.096;2024-01-30T09:54:31;19.15;;;10.25;;
76900;SDS011;65859;43.020;25.096;2024-01-30T09:57:16;17.90;;;9.93;;
76900;SDS011;65859;43.020;25.096;2024-01-30T10:00:05;21.73;;;8.85;;
76900;SDS011;65859;43.020;25.096;2024-01-30T10:02:53;26.67;;;9.35;;
76900;SDS011;65859;43.020;25.096;2024-01-30T10:05:38;28.25;;;9.75;;
76900;SDS011;65859;43.020;25.096;2024-01-30T10:08:25;20.13;;;9.48;;
76900;SDS011;65859;43.020;25.096;2024-01-30T10:11:10;20.30;;;9.45;;
76900;SDS011;65859;43.020;25.096;2024-01-30T10:13:56;21.23;;;10.57;;
76900;SDS011;65859;43.020;25.096;2024-01-30T10:16:40;18.05;;;9.05;;
76900;SDS011;65859;43.020;25.096;2024-01-30T10:19:26;25.98;;;12.55;;
76900;SDS011;65859;43.020;25.096;2024-01-30T10:22:10;16.08;;;8.85;;
76900;SDS011;65859;43.020;25.096;2024-01-30T10:24:55;17.40;;;8.38;;
76900;SDS011;65859;43.020;25.096;2024-01-30T10:27:40;22.38;;;11.15;;
76900;SDS011;65859;43.020;25.096;2024-01-30T10:30:26;22.10;;;9.15;;
76900;SDS011;65859;43.020;25.096;2024-01-30T10:33:13;17.40;;;9.23;;
76900;SDS011;65859;43.020;25.096;2024-01-30T10:36:00;25.60;;;13.07;;
76900;SDS011;65859;43.020;25.096;2024-01-30T10:38:46;25.13;;;12.93;;
76900;SDS011;65859;43.020;25.096;2024-01-30T10:41:38;18.08;;;9.40;;
76900;SDS011;65859;43.020;25.096;2024-01-30T10:44:28;22.25;;;11.48;;
76900;SDS011;65859;43.020;25.096;2024-01-30T10:47:24;16.60;;;8.55;;
76900;SDS011;65859;43.020;25.096;2024-01-30T10:50:12;14.48;;;7.00;;
76900;SDS011;65859;43.020;25.096;2024-01-30T10:52:57;23.38;;;8.27;;
76900;SDS011;65859;43.020;25.096;2024-01-30T10:55:43;18.83;;;7.40;;
76900;SDS011;65859;43.020;25.096;2024-01-30T10:58:30;16.02;;;9.23;;
76900;SDS011;65859;43.020;25.096;2024-01-30T11:01:14;20.90;;;8.50;;
76900;SDS011;65859;43.020;25.096;2024-01-30T11:04:01;13.27;;;7.75;;
76900;SDS011;65859;43.020;25.096;2024-01-30T11:06:46;21.52;;;9.13;;
76900;SDS011;65859;43.020;25.096;2024-01-30T11:09:36;17.80;;;8.75;;
76900;SDS011;65859;43.020;25.096;2024-01-30T11:12:24;14.18;;;7.80;;
76900;SDS011;65859;43.020;25.096;2024-01-30T11:15:12;14.13;;;7.15;;
76900;SDS011;65859;43.020;25.096;2024-01-30T11:17:57;15.32;;;7.75;;
76900;SDS011;65859;43.020;25.096;2024-01-30T11:20:42;11.80;;;6.60;;
76900;SDS011;65859;43.020;25.096;2024-01-30T11:23:33;14.43;;;6.68;;
76900;SDS011;65859;43.020;25.096;2024-01-30T11:26:23;10.43;;;6.32;;
76900;SDS011;65859;43.020;25.096;2024-01-30T11:29:13;16.35;;;8.25;;
76900;SDS011;65859;43.020;25.096;2024-01-30T11:31:58;11.07;;;6.47;;
76900;SDS011;65859;43.020;25.096;2024-01-30T11:34:44;17.90;;;7.05;;
76900;SDS011;65859;43.020;25.096;2024-01-30T11:37:29;13.43;;;6.68;;
76900;SDS011;65859;43.020;25.096;2024-01-30T11:40:16;20.92;;;9.93;;
76900;SDS011;65859;43.020;25.096;2024-01-30T11:43:01;18.05;;;9.57;;
76900;SDS011;65859;43.020;25.096;2024-01-30T11:45:48;17.25;;;7.95;;
76900;SDS011;65859;43.020;25.096;2024-01-30T11:48:33;13.27;;;7.53;;
76900;SDS011;65859;43.020;25.096;2024-01-30T11:51:17;22.38;;;6.47;;
76900;SDS011;65859;43.020;25.096;2024-01-30T11:54:03;10.63;;;5.38;;
76900;SDS011;65859;43.020;25.096;2024-01-30T11:56:49;9.57;;;5.22;;
76900;SDS011;65859;43.020;25.096;2024-01-30T11:59:33;11.40;;;4.95;;
76900;SDS011;65859;43.020;25.096;2024-01-30T12:02:18;13.35;;;4.88;;
76900;SDS011;65859;43.020;25.096;2024-01-30T12:05:05;12.05;;;5.68;;
76900;SDS011;65859;43.020;25.096;2024-01-30T12:07:50;14.10;;;5.47;;
76900;SDS011;65859;43.020;25.096;2024-01-30T12:10:35;11.60;;;5.68;;
76900;SDS011;65859;43.020;25.096;2024-01-30T12:13:20;16.85;;;6.57;;
76900;SDS011;65859;43.020;25.096;2024-01-30T12:16:05;10.80;;;4.95;;
76900;SDS011;65859;43.020;25.096;2024-01-30T12:18:58;10.98;;;5.30;;
76900;SDS011;65859;43.020;25.096;2024-01-30T12:21:47;6.80;;;4.40;;
76900;SDS011;65859;43.020;25.096;2024-01-30T12:24:37;9.05;;;4.20;;
76900;SDS011;65859;43.020;25.096;2024-01-30T12:27:21;10.07;;;5.53;;
76900;SDS011;65859;43.020;25.096;2024-01-30T12:30:07;7.60;;;4.68;;
76900;SDS011;65859;43.020;25.096;2024-01-30T12:32:53;15.10;;;5.10;;
76900;SDS011;65859;43.020;25.096;2024-01-30T12:35:40;9.35;;;4.35;;
76900;SDS011;65859;43.020;25.096;2024-01-30T12:38:31;10.95;;;5.05;;
76900;SDS011;65859;43.020;25.096;2024-01-30T12:41:17;8.65;;;4.65;;
76900;SDS011;65859;43.020;25.096;2024-01-30T12:44:02;8.52;;;5.28;;
76900;SDS011;65859;43.020;25.096;2024-01-30T12:46:47;12.30;;;5.93;;
76900;SDS011;65859;43.020;25.096;2024-01-30T12:49:32;10.98;;;6.07;;
76900;SDS011;65859;43.020;25.096;2024-01-30T12:52:16;18.63;;;7.35;;
76900;SDS011;65859;43.020;25.096;2024-01-30T12:55:01;7.20;;;4.72;;
76900;SDS011;65859;43.020;25.096;2024-01-30T12:57:47;8.85;;;4.57;;
76900;SDS011;65859;43.020;25.096;2024-01-30T13:00:32;10.10;;;5.22;;
76900;SDS011;65859;43.020;25.096;2024-01-30T13:03:18;10.02;;;5.70;;
76900;SDS011;65859;43.020;25.096;2024-01-30T13:06:04;21.17;;;5.05;;
76900;SDS011;65859;43.020;25.096;2024-01-30T13:08:49;20.58;;;7.90;;
76900;SDS011;65859;43.020;25.096;2024-01-30T13:11:34;21.60;;;9.57;;
76900;SDS011;65859;43.020;25.096;2024-01-30T13:14:19;10.57;;;5.95;;
76900;SDS011;65859;43.020;25.096;2024-01-30T13:17:04;8.65;;;5.53;;
76900;SDS011;65859;43.020;25.096;2024-01-30T13:19:49;8.80;;;5.30;;
76900;SDS011;65859;43.020;25.096;2024-01-30T13:22:33;13.70;;;7.90;;
76900;SDS011;65859;43.020;25.096;2024-01-30T13:25:18;12.05;;;5.93;;
76900;SDS011;65859;43.020;25.096;2024-01-30T13:28:03;13.75;;;7.78;;
76900;SDS011;65859;43.020;25.096;2024-01-30T13:30:48;13.07;;;6.00;;
76900;SDS011;65859;43.020;25.096;2024-01-30T13:33:35;16.98;;;7.50;;
76900;SDS011;65859;43.020;25.096;2024-01-30T13:36:21;15.93;;;7.50;;
76900;SDS011;65859;43.020;25.096;2024-01-30T13:39:06;15.27;;;7.20;;
76900;SDS011;65859;43.020;25.096;2024-01-30T13:41:53;24.48;;;8.95;;
76900;SDS011;65859;43.020;25.096;2024-01-30T13:44:38;17.42;;;9.60;;
76900;SDS011;65859;43.020;25.096;2024-01-30T13:47:23;18.92;;;9.38;;
76900;SDS011;65859;43.020;25.096;2024-01-30T13:50:08;19.20;;;10.55;;
76900;SDS011;65859;43.020;25.096;2024-01-30T13:52:58;25.17;;;11.27;;
76900;SDS011;65859;43.020;25.096;2024-01-30T13:55:43;15.65;;;7.75;;
76900;SDS011;65859;43.020;25.096;2024-01-30T13:58:28;13.73;;;7.35;;
76900;SDS011;65859;43.020;25.096;2024-01-30T14:01:13;13.95;;;6.53;;
76900;SDS011;65859;43.020;25.096;2024-01-30T14:03:58;11.32;;;7.18;;
76900;SDS011;65859;43.020;25.096;2024-01-30T14:06:44;17.15;;;9.05;;
76900;SDS011;65859;43.020;25.096;2024-01-30T14:09:28;18.80;;;11.65;;
76900;SDS011;65859;43.020;25.096;2024-01-30T14:12:14;18.40;;;8.80;;
76900;SDS011;65859;43.020;25.096;2024-01-30T14:14:58;21.20;;;8.63;;
76900;SDS011;65859;43.020;25.096;2024-01-30T14:17:43;17.92;;;9.63;;
76900;SDS011;65859;43.020;25.096;2024-01-30T14:20:28;16.90;;;9.25;;
76900;SDS011;65859;43.020;25.096;2024-01-30T14:23:16;31.00;;;16.63;;
76900;SDS011;65859;43.020;25.096;2024-01-30T14:26:01;19.27;;;9.55;;
76900;SDS011;65859;43.020;25.096;2024-01-30T14:28:47;24.27;;;11.27;;
76900;SDS011;65859;43.020;25.096;2024-01-30T14:31:31;21.88;;;9.75;;
76900;SDS011;65859;43.020;25.096;2024-01-30T14:34:16;20.02;;;9.75;;
76900;SDS011;65859;43.020;25.096;2024-01-30T14:37:02;22.30;;;10.60;;
76900;SDS011;65859;43.020;25.096;2024-01-30T14:39:47;16.83;;;9.85;;
76900;SDS011;65859;43.020;25.096;2024-01-30T14:42:32;20.80;;;9.70;;
76900;SDS011;65859;43.020;25.096;2024-01-30T14:45:18;31.70;;;13.20;;
76900;SDS011;65859;43.020;25.096;2024-01-30T14:48:02;25.48;;;10.95;;
76900;SDS011;65859;43.020;25.096;2024-01-30T14:50:47;22.35;;;11.25;;
76900;SDS011;65859;43.020;25.096;2024-01-30T14:53:32;17.95;;;10.20;;
76900;SDS011;65859;43.020;25.096;2024-01-30T14:56:16;18.70;;;9.68;;
76900;SDS011;65859;43.020;25.096;2024-01-30T14:59:01;21.67;;;9.90;;
76900;SDS011;65859;43.020;25.096;2024-01-30T15:01:46;25.58;;;11.27;;
76900;SDS011;65859;43.020;25.096;2024-01-30T15:04:32;21.65;;;11.10;;
76900;SDS011;65859;43.020;25.096;2024-01-30T15:07:18;21.10;;;9.55;;
76900;SDS011;65859;43.020;25.096;2024-01-30T15:10:03;19.50;;;9.55;;
76900;SDS011;65859;43.020;25.096;2024-01-30T15:12:48;15.75;;;8.88;;
76900;SDS011;65859;43.020;25.096;2024-01-30T15:15:33;18.48;;;10.98;;
76900;SDS011;65859;43.020;25.096;2024-01-30T15:18:18;19.67;;;12.00;;
76900;SDS011;65859;43.020;25.096;2024-01-30T15:21:03;21.50;;;11.70;;
76900;SDS011;65859;43.020;25.096;2024-01-30T15:23:48;21.63;;;13.52;;
76900;SDS011;65859;43.020;25.096;2024-01-30T15:26:33;19.63;;;9.73;;
76900;SDS011;65859;43.020;25.096;2024-01-30T15:29:18;14.80;;;8.50;;
76900;SDS011;65859;43.020;25.096;2024-01-30T15:32:04;16.17;;;8.10;;
76900;SDS011;65859;43.020;25.096;2024-01-30T15:34:50;17.70;;;9.18;;
76900;SDS011;65859;43.020;25.096;2024-01-30T15:37:36;25.98;;;10.15;;
76900;SDS011;65859;43.020;25.096;2024-01-30T15:40:20;19.83;;;10.15;;
76900;SDS011;65859;43.020;25.096;2024-01-30T15:43:06;28.38;;;9.57;;
76900;SDS011;65859;43.020;25.096;2024-01-30T15:45:50;17.67;;;9.65;;
76900;SDS011;65859;43.020;25.096;2024-01-30T15:48:36;18.05;;;11.57;;
76900;SDS011;65859;43.020;25.096;2024-01-30T15:51:21;18.77;;;10.60;;
76900;SDS011;65859;43.020;25.096;2024-01-30T15:54:05;25.25;;;13.13;;
76900;SDS011;65859;43.020;25.096;2024-01-30T15:56:50;31.50;;;16.55;;
76900;SDS011;65859;43.020;25.096;2024-01-30T15:59:36;30.05;;;14.55;;